createdAt,value
2022-11-15T00:00:13.650Z,66.00
2022-11-15T00:00:45.117Z,65.90
2022-11-15T00:01:16.602Z,66.00
2022-11-15T00:01:48.113Z,66.00
2022-11-15T00:02:19.678Z,66.00
2022-11-15T00:02:51.196Z,66.10
2022-11-15T00:03:22.661Z,66.00
2022-11-15T00:03:54.124Z,66.00
2022-11-15T00:04:25.597Z,66.00
2022-11-15T00:04:57.064Z,66.10
2022-11-15T00:05:28.537Z,66.00
2022-11-15T00:05:59.995Z,66.00
2022-11-15T00:06:31.460Z,66.10
2022-11-15T00:07:02.958Z,66.00
2022-11-15T00:07:54.638Z,66.00
2022-11-15T00:08:25.984Z,66.00
2022-11-15T00:08:57.475Z,66.10
2022-11-15T00:09:28.942Z,66.10
2022-11-15T00:10:00.412Z,66.10
2022-11-15T00:10:31.880Z,66.10
2022-11-15T00:11:03.339Z,66.20
2022-11-15T00:11:34.885Z,66.10
2022-11-15T00:12:06.426Z,66.10
2022-11-15T00:12:37.891Z,66.20
2022-11-15T00:13:09.366Z,66.20
2022-11-15T00:13:40.836Z,66.20
2022-11-15T00:14:12.302Z,66.20
2022-11-15T00:14:43.836Z,66.20
2022-11-15T00:15:15.321Z,66.20
2022-11-15T00:15:46.890Z,66.20
2022-11-15T00:16:21.284Z,66.20
2022-11-15T00:16:52.819Z,66.20
2022-11-15T00:17:24.365Z,66.20
2022-11-15T00:17:55.877Z,66.20
2022-11-15T00:18:27.348Z,66.20
2022-11-15T00:18:58.922Z,66.20
2022-11-15T00:19:30.457Z,66.10
2022-11-15T00:20:01.981Z,66.20
2022-11-15T00:20:33.457Z,66.20
2022-11-15T00:21:04.938Z,66.20
2022-11-15T00:21:36.454Z,66.20
2022-11-15T00:22:07.994Z,66.20
2022-11-15T00:22:39.559Z,66.20
2022-11-15T00:23:11.211Z,66.20
2022-11-15T00:23:42.687Z,66.20
2022-11-15T00:24:14.151Z,66.20
2022-11-15T00:24:45.654Z,66.20
2022-11-15T00:25:17.132Z,66.10
2022-11-15T00:25:48.608Z,66.20
2022-11-15T00:26:20.117Z,66.10
2022-11-15T00:26:51.597Z,66.10
2022-11-15T00:27:23.065Z,66.10
2022-11-15T00:27:54.528Z,66.10
2022-11-15T00:28:25.984Z,66.00
2022-11-15T00:28:57.453Z,66.10
2022-11-15T00:29:28.959Z,66.10
2022-11-15T00:30:00.451Z,66.10
2022-11-15T00:30:31.918Z,66.10
2022-11-15T00:31:03.392Z,66.20
2022-11-15T00:31:34.861Z,66.20
2022-11-15T00:32:06.352Z,66.20
2022-11-15T00:32:37.887Z,66.20
2022-11-15T00:33:09.379Z,66.20
2022-11-15T00:33:40.850Z,66.20
2022-11-15T00:34:12.324Z,66.30
2022-11-15T00:34:43.785Z,66.20
2022-11-15T00:35:15.243Z,66.20
2022-11-15T00:35:46.724Z,66.30
2022-11-15T00:36:18.187Z,66.30
2022-11-15T00:36:49.664Z,66.20
2022-11-15T00:37:21.129Z,66.30
2022-11-15T00:37:52.610Z,66.30
2022-11-15T00:38:24.082Z,66.30
2022-11-15T00:38:55.536Z,66.40
2022-11-15T00:39:27.010Z,66.30
2022-11-15T00:39:58.516Z,66.30
2022-11-15T00:40:30.075Z,66.40
2022-11-15T00:41:06.246Z,66.30
2022-11-15T00:41:40.457Z,66.40
2022-11-15T00:42:11.915Z,66.40
2022-11-15T00:42:43.382Z,67.30
2022-11-15T00:43:14.854Z,66.40
2022-11-15T00:43:46.315Z,66.40
2022-11-15T00:44:17.776Z,66.40
2022-11-15T00:44:49.234Z,66.40
2022-11-15T00:45:20.902Z,66.40
2022-11-15T00:45:52.359Z,66.40
2022-11-15T00:46:23.864Z,66.40
2022-11-15T00:46:55.338Z,66.50
2022-11-15T00:47:26.815Z,66.40
2022-11-15T00:47:58.289Z,66.50
2022-11-15T00:48:29.755Z,66.40
2022-11-15T00:49:01.223Z,66.30
2022-11-15T00:49:32.694Z,66.50
2022-11-15T00:50:04.172Z,66.40
2022-11-15T00:50:35.643Z,66.40
2022-11-15T00:51:07.103Z,66.40
2022-11-15T00:51:38.559Z,66.40
2022-11-15T00:52:10.020Z,66.40
2022-11-15T00:52:41.484Z,66.40
2022-11-15T00:53:12.939Z,66.50
2022-11-15T00:53:44.404Z,66.40
2022-11-15T00:54:15.872Z,66.40
2022-11-15T00:54:47.336Z,66.40
2022-11-15T00:55:18.804Z,66.40
2022-11-15T00:55:50.277Z,66.40
2022-11-15T00:56:21.758Z,66.50
2022-11-15T00:56:53.229Z,66.50
2022-11-15T00:57:24.691Z,66.50
2022-11-15T00:57:56.157Z,66.50
2022-11-15T00:58:27.638Z,66.60
2022-11-15T00:58:59.117Z,66.50
2022-11-15T00:59:30.585Z,66.50
2022-11-15T01:00:02.084Z,66.50
2022-11-15T01:00:33.624Z,66.50
2022-11-15T01:01:05.178Z,66.50
2022-11-15T01:01:36.672Z,66.50
2022-11-15T01:02:08.144Z,66.40
2022-11-15T01:02:39.615Z,66.40
2022-11-15T01:03:11.088Z,66.50
2022-11-15T01:03:42.553Z,66.40
2022-11-15T01:04:14.034Z,66.40
2022-11-15T01:04:45.498Z,66.50
2022-11-15T01:05:16.956Z,66.40
2022-11-15T01:05:48.427Z,66.40
2022-11-15T01:06:19.883Z,66.50
2022-11-15T01:06:51.384Z,66.40
2022-11-15T01:07:22.989Z,66.40
2022-11-15T01:07:54.556Z,66.40
2022-11-15T01:08:26.040Z,66.50
2022-11-15T01:08:57.500Z,66.50
2022-11-15T01:09:28.969Z,66.50
2022-11-15T01:10:00.440Z,66.50
2022-11-15T01:10:31.955Z,66.60
2022-11-15T01:11:03.419Z,66.50
2022-11-15T01:11:34.880Z,66.60
2022-11-15T01:12:06.348Z,66.60
2022-11-15T01:12:37.827Z,66.60
2022-11-15T01:13:09.302Z,66.60
2022-11-15T01:13:40.785Z,66.60
2022-11-15T01:14:12.250Z,66.50
2022-11-15T01:14:43.730Z,66.50
2022-11-15T01:15:15.223Z,66.60
2022-11-15T01:15:46.680Z,66.60
2022-11-15T01:16:18.165Z,67.30
2022-11-15T01:16:49.636Z,66.50
2022-11-15T01:17:21.117Z,66.60
2022-11-15T01:17:52.582Z,66.50
2022-11-15T01:18:24.039Z,66.50
2022-11-15T01:18:55.514Z,66.60
2022-11-15T01:19:26.975Z,66.50
2022-11-15T01:19:58.444Z,66.50
2022-11-15T01:20:29.944Z,66.50
2022-11-15T01:21:01.421Z,66.50
2022-11-15T01:21:32.883Z,66.50
2022-11-15T01:22:04.366Z,66.50
2022-11-15T01:22:35.840Z,66.60
2022-11-15T01:23:07.321Z,66.60
2022-11-15T01:23:38.802Z,66.50
2022-11-15T01:24:10.273Z,66.60
2022-11-15T01:24:41.740Z,66.60
2022-11-15T01:25:13.212Z,66.60
2022-11-15T01:25:44.703Z,66.60
2022-11-15T01:26:16.269Z,66.60
2022-11-15T01:26:47.738Z,66.60
2022-11-15T01:27:19.201Z,66.60
2022-11-15T01:27:50.668Z,66.60
2022-11-15T01:28:22.128Z,66.60
2022-11-15T01:28:53.604Z,66.60
2022-11-15T01:29:25.129Z,66.70
2022-11-15T01:29:56.586Z,66.60
2022-11-15T01:30:28.065Z,66.60
2022-11-15T01:30:59.532Z,66.60
2022-11-15T01:31:31.108Z,66.60
2022-11-15T01:32:02.587Z,66.60
2022-11-15T01:32:34.120Z,66.60
2022-11-15T01:33:05.583Z,66.60
2022-11-15T01:33:37.049Z,66.60
2022-11-15T01:34:08.517Z,66.70
2022-11-15T01:34:40.000Z,66.70
2022-11-15T01:35:11.603Z,66.60
2022-11-15T01:35:43.089Z,66.60
2022-11-15T01:36:14.557Z,67.00
2022-11-15T01:36:46.047Z,66.60
2022-11-15T01:37:17.529Z,66.60
2022-11-15T01:37:49.008Z,66.70
2022-11-15T01:38:20.489Z,66.60
2022-11-15T01:38:51.953Z,66.60
2022-11-15T01:39:23.458Z,66.60
2022-11-15T01:39:54.920Z,66.60
2022-11-15T01:40:26.392Z,66.60
2022-11-15T01:40:57.868Z,66.60
2022-11-15T01:41:29.334Z,66.60
2022-11-15T01:42:00.804Z,66.60
2022-11-15T01:42:32.260Z,66.60
2022-11-15T01:43:03.739Z,66.60
2022-11-15T01:43:35.206Z,66.60
2022-11-15T01:44:06.664Z,66.50
2022-11-15T01:44:38.140Z,66.50
2022-11-15T01:45:09.599Z,66.60
2022-11-15T01:45:41.063Z,66.60
2022-11-15T01:46:12.536Z,66.60
2022-11-15T01:46:44.008Z,66.60
2022-11-15T01:47:15.519Z,66.60
2022-11-15T01:47:46.988Z,66.60
2022-11-15T01:48:18.456Z,66.60
2022-11-15T01:48:49.923Z,67.30
2022-11-15T01:49:21.407Z,66.60
2022-11-15T01:49:52.915Z,66.60
2022-11-15T01:50:24.382Z,66.60
2022-11-15T01:50:55.856Z,66.60
2022-11-15T01:51:27.317Z,66.60
2022-11-15T01:51:58.778Z,66.60
2022-11-15T01:52:30.250Z,66.70
2022-11-15T01:53:01.738Z,66.60
2022-11-15T01:53:33.420Z,66.60
2022-11-15T01:54:05.024Z,66.60
2022-11-15T01:54:36.491Z,66.70
2022-11-15T01:55:07.962Z,66.60
2022-11-15T01:55:39.451Z,66.60
2022-11-15T01:56:10.919Z,66.60
2022-11-15T01:56:42.393Z,66.60
2022-11-15T01:57:13.861Z,66.60
2022-11-15T01:57:45.370Z,66.70
2022-11-15T01:58:16.851Z,66.60
2022-11-15T01:58:48.328Z,66.70
2022-11-15T01:59:19.812Z,66.70
2022-11-15T01:59:51.269Z,66.70
2022-11-15T02:00:22.727Z,66.70
2022-11-15T02:00:54.268Z,66.70
2022-11-15T02:01:25.763Z,66.70
2022-11-15T02:01:57.240Z,66.80
2022-11-15T02:02:28.718Z,66.70
2022-11-15T02:03:00.232Z,66.70
2022-11-15T02:03:32.070Z,66.70
2022-11-15T02:04:03.677Z,66.70
2022-11-15T02:04:35.145Z,66.90
2022-11-15T02:05:06.613Z,66.70
2022-11-15T02:05:38.076Z,66.80
2022-11-15T02:06:09.537Z,66.80
2022-11-15T02:06:41.009Z,66.70
2022-11-15T02:07:12.537Z,66.80
2022-11-15T02:07:44.030Z,66.70
2022-11-15T02:08:15.508Z,66.90
2022-11-15T02:08:46.966Z,66.70
2022-11-15T02:09:18.428Z,66.80
2022-11-15T02:09:49.920Z,66.80
2022-11-15T02:10:21.384Z,66.80
2022-11-15T02:10:52.984Z,66.80
2022-11-15T02:11:24.448Z,67.30
2022-11-15T02:11:55.911Z,66.90
2022-11-15T02:12:27.371Z,66.90
2022-11-15T02:12:58.837Z,66.90
2022-11-15T02:13:30.614Z,66.90
2022-11-15T02:14:02.330Z,66.90
2022-11-15T02:14:33.797Z,66.90
2022-11-15T02:15:05.268Z,66.90
2022-11-15T02:15:36.740Z,66.90
2022-11-15T02:16:08.208Z,66.80
2022-11-15T02:16:39.683Z,66.90
2022-11-15T02:17:11.155Z,66.90
2022-11-15T02:17:42.637Z,66.80
2022-11-15T02:18:14.094Z,66.70
2022-11-15T02:18:45.600Z,66.80
2022-11-15T02:19:17.087Z,66.70
2022-11-15T02:19:48.570Z,66.70
2022-11-15T02:20:20.053Z,66.70
2022-11-15T02:20:51.518Z,66.70
2022-11-15T02:21:22.998Z,66.60
2022-11-15T02:21:54.474Z,66.70
2022-11-15T02:22:25.945Z,67.50
2022-11-15T02:22:57.403Z,66.60
2022-11-15T02:23:29.247Z,66.70
2022-11-15T02:24:00.955Z,66.70
2022-11-15T02:24:32.427Z,66.70
2022-11-15T02:25:03.925Z,66.70
2022-11-15T02:25:35.408Z,66.70
2022-11-15T02:26:06.875Z,66.70
2022-11-15T02:26:38.341Z,66.70
2022-11-15T02:27:09.804Z,66.70
2022-11-15T02:27:41.277Z,66.70
2022-11-15T02:28:12.752Z,66.70
2022-11-15T02:28:44.227Z,66.80
2022-11-15T02:29:15.687Z,66.70
2022-11-15T02:29:47.165Z,66.70
2022-11-15T02:30:18.642Z,66.80
2022-11-15T02:30:50.118Z,66.70
2022-11-15T02:31:21.580Z,66.80
2022-11-15T02:31:53.044Z,66.80
2022-11-15T02:32:24.503Z,66.80
2022-11-15T02:32:55.971Z,66.80
2022-11-15T02:33:27.436Z,66.80
2022-11-15T02:33:58.903Z,66.80
2022-11-15T02:34:30.375Z,66.80
2022-11-15T02:35:01.857Z,66.90
2022-11-15T02:35:33.334Z,66.90
2022-11-15T02:36:05.749Z,66.80
2022-11-15T02:36:37.220Z,66.90
2022-11-15T02:37:08.697Z,66.90
2022-11-15T02:37:40.171Z,66.90
2022-11-15T02:38:11.634Z,66.90
2022-11-15T02:38:43.095Z,66.90
2022-11-15T02:39:14.556Z,66.90
2022-11-15T02:39:46.037Z,67.00
2022-11-15T02:40:17.497Z,67.00
2022-11-15T02:40:48.983Z,66.90
2022-11-15T02:41:20.465Z,67.00
2022-11-15T02:41:51.942Z,66.90
2022-11-15T02:42:23.413Z,66.90
2022-11-15T02:42:54.873Z,66.90
2022-11-15T02:43:26.353Z,66.90
2022-11-15T02:43:57.819Z,66.90
2022-11-15T02:44:29.306Z,66.90
2022-11-15T02:45:00.772Z,66.90
2022-11-15T02:45:32.241Z,66.90
2022-11-15T02:46:03.703Z,66.90
2022-11-15T02:46:35.199Z,66.90
2022-11-15T02:47:06.665Z,66.80
2022-11-15T02:47:38.138Z,66.80
2022-11-15T02:48:09.610Z,66.80
2022-11-15T02:48:41.068Z,66.80
2022-11-15T02:49:12.589Z,66.80
2022-11-15T02:49:44.062Z,66.80
2022-11-15T02:50:15.529Z,66.80
2022-11-15T02:50:46.999Z,66.80
2022-11-15T02:51:18.465Z,66.80
2022-11-15T02:51:50.071Z,66.80
2022-11-15T02:52:21.551Z,66.80
2022-11-15T02:52:53.023Z,66.80
2022-11-15T02:53:24.481Z,66.80
2022-11-15T02:53:55.959Z,66.90
2022-11-15T02:54:27.428Z,66.90
2022-11-15T02:54:58.892Z,66.90
2022-11-15T02:55:30.365Z,66.90
2022-11-15T02:56:01.868Z,66.80
2022-11-15T02:56:33.327Z,66.80
2022-11-15T02:57:04.816Z,66.90
2022-11-15T02:57:36.293Z,66.80
2022-11-15T02:58:07.763Z,66.90
2022-11-15T02:58:39.235Z,66.80
2022-11-15T02:59:10.701Z,66.70
2022-11-15T02:59:42.172Z,66.90
2022-11-15T03:00:13.640Z,66.70
2022-11-15T03:00:45.167Z,66.70
2022-11-15T03:01:16.724Z,66.80
2022-11-15T03:01:48.224Z,66.70
2022-11-15T03:02:19.695Z,66.70
2022-11-15T03:02:51.181Z,66.70
2022-11-15T03:03:22.643Z,66.80
2022-11-15T03:03:54.109Z,66.70
2022-11-15T03:04:25.577Z,66.80
2022-11-15T03:04:57.050Z,66.90
2022-11-15T03:05:28.512Z,66.70
2022-11-15T03:05:59.971Z,66.80
2022-11-15T03:06:31.432Z,66.90
2022-11-15T03:07:02.898Z,66.90
2022-11-15T03:07:34.434Z,66.80
2022-11-15T03:08:05.947Z,66.90
2022-11-15T03:08:37.407Z,66.80
2022-11-15T03:09:08.872Z,66.80
2022-11-15T03:09:40.342Z,66.90
2022-11-15T03:10:11.816Z,66.90
2022-11-15T03:10:43.312Z,66.90
2022-11-15T03:11:14.785Z,66.90
2022-11-15T03:11:46.257Z,67.00
2022-11-15T03:12:17.740Z,67.00
2022-11-15T03:12:49.208Z,67.00
2022-11-15T03:13:20.666Z,67.00
2022-11-15T03:13:52.140Z,67.00
2022-11-15T03:14:23.615Z,67.00
2022-11-15T03:14:55.085Z,66.90
2022-11-15T03:15:26.552Z,66.90
2022-11-15T03:15:58.015Z,66.90
2022-11-15T03:16:29.494Z,67.00
2022-11-15T03:17:00.961Z,66.90
2022-11-15T03:17:32.423Z,66.90
2022-11-15T03:18:03.901Z,67.00
2022-11-15T03:18:35.370Z,66.90
2022-11-15T03:19:06.835Z,67.00
2022-11-15T03:19:38.309Z,67.00
2022-11-15T03:20:09.773Z,67.70
2022-11-15T03:20:41.258Z,67.00
2022-11-15T03:21:12.731Z,67.00
2022-11-15T03:21:44.392Z,67.00
2022-11-15T03:22:15.859Z,66.90
2022-11-15T03:22:47.335Z,67.30
2022-11-15T03:23:18.814Z,67.00
2022-11-15T03:23:50.285Z,67.00
2022-11-15T03:24:25.834Z,67.00
2022-11-15T03:24:57.701Z,67.00
2022-11-15T03:25:29.170Z,67.00
2022-11-15T03:26:00.640Z,67.00
2022-11-15T03:26:32.127Z,67.00
2022-11-15T03:27:03.591Z,67.00
2022-11-15T03:27:35.073Z,67.00
2022-11-15T03:28:06.578Z,67.00
2022-11-15T03:28:38.047Z,67.00
2022-11-15T03:29:09.512Z,67.00
2022-11-15T03:29:40.978Z,67.00
2022-11-15T03:30:12.439Z,67.00
2022-11-15T03:30:43.921Z,67.00
2022-11-15T03:31:15.390Z,67.00
2022-11-15T03:31:49.985Z,67.00
2022-11-15T03:32:22.528Z,67.00
2022-11-15T03:32:53.994Z,67.00
2022-11-15T03:33:25.463Z,67.00
2022-11-15T03:33:56.929Z,67.00
2022-11-15T03:34:28.409Z,66.90
2022-11-15T03:34:59.874Z,67.00
2022-11-15T03:35:31.349Z,67.00
2022-11-15T03:36:02.851Z,67.00
2022-11-15T03:36:34.326Z,67.00
2022-11-15T03:37:05.784Z,67.00
2022-11-15T03:37:37.259Z,67.00
2022-11-15T03:38:08.772Z,67.10
2022-11-15T03:38:40.331Z,67.10
2022-11-15T03:39:14.096Z,67.10
2022-11-15T03:39:49.261Z,67.00
2022-11-15T03:40:20.736Z,67.10
2022-11-15T03:40:52.206Z,67.00
2022-11-15T03:41:23.680Z,67.00
2022-11-15T03:41:55.142Z,67.10
2022-11-15T03:42:26.623Z,67.00
2022-11-15T03:42:58.088Z,67.00
2022-11-15T03:43:29.782Z,67.00
2022-11-15T03:44:01.517Z,67.00
2022-11-15T03:44:32.986Z,67.00
2022-11-15T03:45:04.447Z,67.00
2022-11-15T03:45:35.914Z,67.10
2022-11-15T03:46:07.399Z,67.00
2022-11-15T03:46:38.887Z,67.00
2022-11-15T03:47:10.360Z,67.10
2022-11-15T03:47:41.845Z,67.00
2022-11-15T03:48:13.316Z,67.00
2022-11-15T03:48:45.160Z,67.00
2022-11-15T03:49:16.633Z,67.00
2022-11-15T03:49:48.101Z,67.10
2022-11-15T03:50:19.566Z,67.20
2022-11-15T03:50:51.036Z,67.10
2022-11-15T03:51:22.496Z,67.10
2022-11-15T03:51:53.959Z,67.10
2022-11-15T03:52:25.432Z,67.10
2022-11-15T03:52:56.931Z,67.10
2022-11-15T03:53:28.523Z,67.10
2022-11-15T03:54:00.116Z,67.10
2022-11-15T03:54:31.589Z,67.10
2022-11-15T03:55:03.072Z,67.20
2022-11-15T03:55:34.528Z,67.20
2022-11-15T03:56:05.984Z,67.20
2022-11-15T03:56:37.454Z,67.20
2022-11-15T03:57:08.923Z,67.20
2022-11-15T03:57:40.393Z,67.20
2022-11-15T03:58:11.885Z,67.20
2022-11-15T03:58:43.353Z,67.20
2022-11-15T03:59:14.829Z,67.30
2022-11-15T03:59:46.305Z,67.20
2022-11-15T04:00:17.771Z,67.20
2022-11-15T04:00:49.321Z,67.20
2022-11-15T04:01:20.868Z,67.20
2022-11-15T04:01:52.354Z,67.30
2022-11-15T04:02:23.815Z,67.20
2022-11-15T04:02:55.276Z,67.30
2022-11-15T04:03:26.780Z,67.20
2022-11-15T04:03:58.248Z,67.30
2022-11-15T04:04:29.714Z,67.30
2022-11-15T04:05:01.198Z,67.20
2022-11-15T04:05:32.660Z,67.20
2022-11-15T04:06:04.128Z,67.30
2022-11-15T04:06:35.608Z,67.30
2022-11-15T04:07:07.135Z,67.30
2022-11-15T04:07:38.947Z,67.30
2022-11-15T04:08:10.840Z,67.30
2022-11-15T04:08:42.310Z,67.30
2022-11-15T04:09:13.773Z,67.30
2022-11-15T04:09:45.245Z,67.30
2022-11-15T04:10:16.711Z,67.30
2022-11-15T04:10:48.178Z,67.40
2022-11-15T04:11:19.649Z,67.30
2022-11-15T04:11:51.111Z,67.30
2022-11-15T04:12:22.576Z,67.50
2022-11-15T04:12:54.050Z,67.40
2022-11-15T04:13:25.525Z,67.30
2022-11-15T04:13:57.004Z,67.30
2022-11-15T04:14:28.462Z,67.30
2022-11-15T04:14:59.943Z,67.30
2022-11-15T04:15:31.408Z,67.30
2022-11-15T04:16:02.872Z,67.30
2022-11-15T04:16:35.773Z,67.30
2022-11-15T04:17:08.884Z,67.30
2022-11-15T04:17:40.358Z,67.30
2022-11-15T04:18:11.829Z,67.30
2022-11-15T04:18:43.299Z,67.30
2022-11-15T04:19:14.754Z,67.30
2022-11-15T04:19:46.263Z,67.30
2022-11-15T04:20:17.766Z,67.30
2022-11-15T04:20:49.228Z,67.20
2022-11-15T04:21:20.688Z,67.30
2022-11-15T04:21:52.146Z,67.30
2022-11-15T04:22:23.607Z,67.30
2022-11-15T04:22:55.085Z,67.30
2022-11-15T04:23:26.544Z,67.30
2022-11-15T04:23:58.009Z,67.30
2022-11-15T04:24:29.470Z,67.30
2022-11-15T04:25:00.966Z,67.30
2022-11-15T04:25:32.642Z,67.30
2022-11-15T04:26:04.116Z,67.30
2022-11-15T04:26:35.584Z,67.40
2022-11-15T04:27:07.045Z,67.30
2022-11-15T04:27:38.518Z,67.30
2022-11-15T04:28:09.989Z,67.30
2022-11-15T04:28:41.460Z,67.30
2022-11-15T04:29:12.932Z,67.30
2022-11-15T04:29:44.387Z,67.30
2022-11-15T04:30:15.854Z,67.30
2022-11-15T04:30:47.338Z,67.30
2022-11-15T04:31:18.806Z,67.30
2022-11-15T04:31:50.288Z,67.30
2022-11-15T04:32:21.756Z,67.30
2022-11-15T04:32:53.223Z,67.30
2022-11-15T04:33:24.690Z,67.40
2022-11-15T04:33:56.153Z,67.40
2022-11-15T04:34:27.623Z,67.30
2022-11-15T04:34:59.079Z,67.40
2022-11-15T04:35:30.609Z,67.40
2022-11-15T04:36:02.073Z,67.40
2022-11-15T04:36:33.545Z,67.50
2022-11-15T04:37:05.023Z,67.40
2022-11-15T04:37:36.500Z,67.50
2022-11-15T04:38:07.978Z,67.50
2022-11-15T04:38:39.451Z,67.50
2022-11-15T04:39:10.921Z,67.50
2022-11-15T04:39:42.384Z,67.50
2022-11-15T04:40:13.854Z,67.80
2022-11-15T04:40:45.316Z,67.50
2022-11-15T04:41:16.781Z,67.50
2022-11-15T04:41:48.281Z,67.40
2022-11-15T04:42:19.761Z,67.50
2022-11-15T04:42:51.233Z,67.50
2022-11-15T04:43:22.700Z,67.60
2022-11-15T04:43:54.165Z,67.50
2022-11-15T04:44:25.627Z,67.50
2022-11-15T04:44:57.101Z,67.60
2022-11-15T04:45:28.583Z,67.50
2022-11-15T04:46:00.045Z,67.50
2022-11-15T04:46:31.509Z,67.50
2022-11-15T04:47:02.984Z,67.50
2022-11-15T04:47:34.450Z,67.50
2022-11-15T04:48:05.936Z,67.50
2022-11-15T04:48:37.407Z,67.50
2022-11-15T04:49:08.878Z,67.40
2022-11-15T04:49:40.372Z,67.50
2022-11-15T04:50:11.843Z,67.40
2022-11-15T04:50:43.299Z,67.50
2022-11-15T04:51:14.777Z,67.40
2022-11-15T04:51:46.237Z,67.40
2022-11-15T04:52:17.710Z,67.40
2022-11-15T04:52:49.375Z,67.50
2022-11-15T04:53:20.846Z,67.40
2022-11-15T04:53:52.312Z,67.40
2022-11-15T04:54:23.804Z,67.40
2022-11-15T04:54:55.290Z,67.40
2022-11-15T04:55:26.752Z,67.40
2022-11-15T04:55:58.211Z,67.40
2022-11-15T04:56:29.671Z,67.50
2022-11-15T04:57:01.158Z,67.50
2022-11-15T04:57:32.633Z,67.50
2022-11-15T04:58:04.104Z,67.50
2022-11-15T04:58:35.569Z,67.50
2022-11-15T04:59:07.042Z,67.60
2022-11-15T04:59:38.507Z,67.50
2022-11-15T05:00:10.046Z,67.50
2022-11-15T05:00:41.706Z,67.50
2022-11-15T05:01:13.315Z,67.50
2022-11-15T05:01:45.403Z,67.50
2022-11-15T05:02:16.966Z,67.60
2022-11-15T05:02:48.440Z,68.30
2022-11-15T05:03:19.904Z,67.60
2022-11-15T05:03:51.364Z,67.60
2022-11-15T05:04:22.829Z,67.60
2022-11-15T05:04:54.306Z,67.60
2022-11-15T05:05:25.773Z,67.60
2022-11-15T05:05:57.231Z,67.60
2022-11-15T05:06:28.697Z,67.60
2022-11-15T05:07:00.229Z,67.70
2022-11-15T05:07:31.788Z,67.70
2022-11-15T05:08:03.283Z,67.60
2022-11-15T05:08:34.761Z,67.70
2022-11-15T05:09:06.235Z,67.60
2022-11-15T05:09:37.691Z,67.70
2022-11-15T05:10:09.147Z,67.60
2022-11-15T05:10:40.854Z,67.60
2022-11-15T05:11:12.317Z,67.60
2022-11-15T05:11:43.800Z,67.70
2022-11-15T05:12:15.289Z,67.60
2022-11-15T05:12:46.756Z,67.70
2022-11-15T05:13:18.221Z,67.60
2022-11-15T05:13:49.702Z,67.60
2022-11-15T05:14:21.183Z,67.70
2022-11-15T05:14:52.648Z,67.60
2022-11-15T05:15:24.116Z,67.60
2022-11-15T05:15:55.593Z,67.60
2022-11-15T05:16:27.064Z,67.60
2022-11-15T05:16:58.578Z,67.60
2022-11-15T05:17:30.051Z,67.60
2022-11-15T05:18:01.508Z,67.60
2022-11-15T05:18:32.977Z,67.60
2022-11-15T05:19:04.456Z,67.60
2022-11-15T05:19:35.923Z,67.60
2022-11-15T05:20:07.395Z,67.60
2022-11-15T05:20:38.866Z,67.60
2022-11-15T05:21:10.331Z,67.60
2022-11-15T05:21:41.802Z,67.60
2022-11-15T05:22:13.356Z,67.60
2022-11-15T05:22:44.869Z,67.60
2022-11-15T05:23:16.339Z,67.60
2022-11-15T05:23:47.812Z,67.60
2022-11-15T05:24:19.267Z,67.60
2022-11-15T05:24:50.731Z,67.60
2022-11-15T05:25:22.211Z,67.70
2022-11-15T05:25:53.714Z,67.70
2022-11-15T05:26:25.182Z,67.70
2022-11-15T05:26:56.643Z,67.60
2022-11-15T05:27:28.110Z,67.60
2022-11-15T05:27:59.589Z,67.70
2022-11-15T05:28:31.073Z,67.70
2022-11-15T05:29:02.541Z,67.70
2022-11-15T05:29:34.007Z,67.70
2022-11-15T05:30:05.512Z,67.70
2022-11-15T05:30:36.974Z,67.70
2022-11-15T05:31:08.458Z,67.70
2022-11-15T05:31:39.951Z,67.80
2022-11-15T05:32:11.411Z,67.70
2022-11-15T05:32:42.875Z,67.70
2022-11-15T05:33:14.341Z,67.70
2022-11-15T05:33:45.806Z,67.70
2022-11-15T05:34:17.267Z,67.70
2022-11-15T05:34:48.731Z,67.70
2022-11-15T05:35:20.242Z,67.70
2022-11-15T05:35:51.738Z,67.70
2022-11-15T05:36:23.206Z,67.70
2022-11-15T05:36:54.721Z,67.70
2022-11-15T05:37:26.183Z,67.70
2022-11-15T05:37:57.648Z,67.70
2022-11-15T05:38:29.161Z,67.70
2022-11-15T05:39:00.673Z,67.70
2022-11-15T05:39:32.155Z,67.70
2022-11-15T05:40:03.630Z,67.70
2022-11-15T05:40:35.091Z,67.70
2022-11-15T05:41:06.563Z,67.70
2022-11-15T05:41:38.078Z,67.70
2022-11-15T05:42:09.570Z,67.70
2022-11-15T05:42:41.042Z,67.70
2022-11-15T05:43:12.520Z,67.70
2022-11-15T05:43:44.005Z,67.70
2022-11-15T05:44:15.474Z,67.70
2022-11-15T05:44:46.941Z,67.70
2022-11-15T05:45:22.534Z,67.70
2022-11-15T05:45:57.968Z,67.70
2022-11-15T05:46:29.448Z,67.60
2022-11-15T05:47:00.928Z,67.70
2022-11-15T05:47:32.403Z,67.60
2022-11-15T05:48:03.870Z,67.70
2022-11-15T05:48:35.356Z,67.60
2022-11-15T05:49:06.858Z,67.60
2022-11-15T05:49:38.360Z,67.70
2022-11-15T05:50:09.843Z,67.70
2022-11-15T05:50:41.310Z,67.60
2022-11-15T05:51:12.769Z,67.70
2022-11-15T05:51:44.266Z,67.70
2022-11-15T05:52:15.738Z,67.70
2022-11-15T05:52:47.202Z,67.70
2022-11-15T05:53:18.664Z,67.70
2022-11-15T05:53:50.140Z,67.70
2022-11-15T05:54:21.625Z,67.70
2022-11-15T05:54:53.097Z,67.70
2022-11-15T05:55:24.580Z,67.70
2022-11-15T05:55:56.037Z,67.70
2022-11-15T05:56:27.510Z,67.70
2022-11-15T05:56:59.062Z,67.70
2022-11-15T05:57:30.532Z,67.70
2022-11-15T05:58:01.991Z,67.70
2022-11-15T05:58:33.464Z,67.70
2022-11-15T05:59:04.931Z,67.70
2022-11-15T05:59:36.406Z,67.70
2022-11-15T06:00:07.876Z,67.70
2022-11-15T06:00:39.345Z,67.70
2022-11-15T06:01:10.832Z,67.70
2022-11-15T06:01:42.368Z,67.70
2022-11-15T06:02:13.938Z,67.70
2022-11-15T06:02:45.408Z,67.80
2022-11-15T06:03:16.863Z,67.70
2022-11-15T06:03:48.364Z,67.80
2022-11-15T06:04:19.834Z,67.80
2022-11-15T06:04:51.301Z,67.80
2022-11-15T06:05:22.765Z,67.80
2022-11-15T06:05:54.246Z,67.80
2022-11-15T06:06:25.709Z,67.80
2022-11-15T06:06:57.189Z,67.80
2022-11-15T06:07:28.713Z,67.80
2022-11-15T06:08:00.215Z,67.80
2022-11-15T06:08:31.684Z,67.80
2022-11-15T06:09:03.156Z,67.90
2022-11-15T06:09:34.612Z,67.90
2022-11-15T06:10:06.080Z,67.90
2022-11-15T06:10:37.563Z,67.90
2022-11-15T06:11:09.028Z,67.80
2022-11-15T06:11:40.497Z,67.80
2022-11-15T06:12:11.968Z,67.70
2022-11-15T06:12:43.434Z,67.70
2022-11-15T06:13:14.889Z,67.70
2022-11-15T06:13:46.358Z,67.70
2022-11-15T06:14:17.845Z,67.70
2022-11-15T06:14:49.325Z,67.60
2022-11-15T06:15:20.795Z,67.60
2022-11-15T06:15:52.255Z,67.60
2022-11-15T06:16:23.725Z,67.70
2022-11-15T06:16:55.193Z,67.60
2022-11-15T06:17:26.672Z,67.60
2022-11-15T06:17:58.143Z,67.70
2022-11-15T06:18:29.675Z,67.60
2022-11-15T06:19:01.136Z,67.70
2022-11-15T06:19:32.608Z,67.60
2022-11-15T06:20:04.078Z,67.60
2022-11-15T06:20:35.569Z,67.60
2022-11-15T06:21:07.041Z,67.60
2022-11-15T06:21:38.509Z,67.70
2022-11-15T06:22:09.976Z,67.70
2022-11-15T06:22:41.451Z,67.70
2022-11-15T06:23:12.920Z,67.70
2022-11-15T06:23:44.393Z,67.70
2022-11-15T06:24:15.855Z,67.70
2022-11-15T06:24:47.312Z,67.70
2022-11-15T06:25:18.816Z,67.70
2022-11-15T06:25:50.306Z,67.70
2022-11-15T06:26:21.787Z,67.70
2022-11-15T06:26:53.251Z,67.70
2022-11-15T06:27:24.713Z,67.80
2022-11-15T06:27:56.194Z,67.70
2022-11-15T06:28:27.660Z,67.70
2022-11-15T06:28:59.142Z,67.70
2022-11-15T06:29:30.606Z,67.70
2022-11-15T06:30:02.155Z,67.70
2022-11-15T06:30:33.618Z,67.70
2022-11-15T06:31:05.084Z,68.60
2022-11-15T06:31:36.556Z,67.80
2022-11-15T06:32:08.022Z,67.70
2022-11-15T06:32:39.489Z,67.70
2022-11-15T06:33:11.012Z,67.70
2022-11-15T06:33:42.489Z,67.70
2022-11-15T06:34:13.965Z,67.90
2022-11-15T06:34:45.444Z,67.90
2022-11-15T06:35:16.916Z,67.90
2022-11-15T06:35:48.385Z,67.90
2022-11-15T06:36:19.851Z,67.70
2022-11-15T06:36:51.334Z,68.60
2022-11-15T06:37:22.827Z,67.90
2022-11-15T06:37:54.301Z,67.90
2022-11-15T06:38:25.763Z,67.90
2022-11-15T06:38:57.228Z,67.90
2022-11-15T06:39:28.707Z,67.90
2022-11-15T06:40:00.179Z,67.90
2022-11-15T06:40:31.649Z,67.90
2022-11-15T06:41:03.116Z,68.00
2022-11-15T06:41:34.592Z,67.90
2022-11-15T06:42:06.095Z,67.90
2022-11-15T06:42:37.567Z,67.90
2022-11-15T06:43:09.044Z,67.90
2022-11-15T06:43:40.515Z,67.90
2022-11-15T06:44:11.982Z,67.90
2022-11-15T06:44:43.489Z,67.90
2022-11-15T06:45:15.025Z,67.90
2022-11-15T06:45:46.496Z,67.80
2022-11-15T06:46:17.955Z,67.80